createdAt,value
2022-10-03T00:02:04.648Z,13.07
2022-10-03T00:04:50.170Z,13.07
2022-10-03T00:07:42.332Z,13.12
2022-10-03T00:10:25.027Z,13.08
2022-10-03T00:13:05.887Z,12.99
2022-10-03T00:15:48.693Z,13.09
2022-10-03T00:18:31.174Z,13.12
2022-10-03T00:21:19.837Z,13.09
2022-10-03T00:24:01.021Z,13.16
2022-10-03T00:26:42.498Z,13.22
2022-10-03T00:29:26.871Z,13.24
2022-10-03T00:32:08.642Z,13.29
2022-10-03T00:34:50.065Z,13.41
2022-10-03T00:37:28.820Z,13.42
2022-10-03T00:40:32.804Z,13.51
2022-10-03T00:43:34.301Z,13.56
2022-10-03T00:46:22.193Z,13.63
2022-10-03T00:49:17.105Z,13.67
2022-10-03T00:52:07.904Z,13.71
2022-10-03T00:54:52.389Z,13.76
2022-10-03T00:57:39.376Z,13.77
2022-10-03T01:00:30.030Z,13.86
2022-10-03T01:03:18.995Z,13.83
2022-10-03T01:06:02.835Z,13.83
2022-10-03T01:08:43.567Z,13.82
2022-10-03T01:11:25.457Z,13.82
2022-10-03T01:14:05.124Z,13.88
2022-10-03T01:16:44.131Z,13.89
2022-10-03T01:19:40.882Z,13.81
2022-10-03T01:22:31.779Z,13.90
2022-10-03T01:25:08.130Z,13.92
2022-10-03T01:27:58.595Z,13.90
2022-10-03T01:30:38.877Z,13.92
2022-10-03T01:33:23.670Z,13.93
2022-10-03T01:36:02.076Z,13.95
2022-10-03T01:38:41.959Z,13.96
2022-10-03T01:41:20.083Z,13.98
2022-10-03T01:43:55.196Z,14.01
2022-10-03T01:46:35.014Z,14.05
2022-10-03T01:49:15.364Z,14.06
2022-10-03T01:51:56.031Z,14.08
2022-10-03T01:54:36.101Z,14.08
2022-10-03T01:57:17.715Z,14.10
2022-10-03T01:59:56.074Z,14.11
2022-10-03T02:02:33.310Z,14.14
2022-10-03T02:05:12.455Z,14.18
2022-10-03T02:07:50.029Z,14.21
2022-10-03T02:10:34.523Z,14.24
2022-10-03T02:13:11.264Z,14.27
2022-10-03T02:16:12.177Z,14.31
2022-10-03T02:18:49.241Z,14.38
2022-10-03T02:21:22.592Z,14.44
2022-10-03T02:27:15.362Z,14.61
2022-10-03T02:30:05.375Z,14.65
2022-10-03T02:33:11.202Z,14.69
2022-10-03T02:36:06.880Z,14.72
2022-10-03T02:38:52.025Z,14.67
2022-10-03T02:41:43.080Z,14.70
2022-10-03T02:44:45.177Z,14.67
2022-10-03T02:47:44.095Z,14.67
2022-10-03T02:50:44.575Z,14.68
2022-10-03T02:53:52.307Z,14.71
2022-10-03T02:56:53.824Z,14.72
2022-10-03T02:59:49.025Z,14.74
2022-10-03T03:03:06.364Z,14.78
2022-10-03T03:06:13.536Z,14.82
2022-10-03T03:09:02.682Z,14.84
2022-10-03T03:12:07.576Z,14.82
2022-10-03T03:15:00.714Z,14.81
2022-10-03T03:17:36.761Z,14.79
2022-10-03T03:20:37.139Z,14.85
2022-10-03T03:23:39.166Z,14.88
2022-10-03T03:26:33.512Z,14.82
2022-10-03T03:29:11.705Z,14.88
2022-10-03T03:32:04.980Z,14.90
2022-10-03T03:34:45.071Z,14.91
2022-10-03T03:37:27.011Z,14.95
2022-10-03T03:40:14.742Z,14.98
2022-10-03T03:43:14.061Z,14.97
2022-10-03T03:45:54.203Z,14.98
2022-10-03T03:48:48.561Z,14.98
2022-10-03T03:51:27.900Z,15.01
2022-10-03T03:54:19.202Z,15.02
2022-10-03T03:57:08.494Z,15.12
2022-10-03T04:00:06.224Z,15.23
2022-10-03T04:03:07.581Z,15.25
2022-10-03T04:05:52.277Z,15.29
2022-10-03T04:08:35.486Z,15.30
2022-10-03T04:11:18.155Z,15.27
2022-10-03T04:14:09.620Z,15.26
2022-10-03T04:17:12.284Z,15.38
2022-10-03T04:19:53.088Z,15.41
2022-10-03T04:22:47.092Z,15.44
2022-10-03T04:25:44.439Z,15.45
2022-10-03T04:28:33.853Z,15.46
2022-10-03T04:31:17.014Z,15.44
2022-10-03T04:34:19.848Z,15.46
2022-10-03T04:37:10.168Z,15.44
2022-10-03T04:39:49.461Z,15.45
2022-10-03T04:42:29.253Z,15.48
2022-10-03T04:45:20.054Z,15.46
2022-10-03T04:47:55.389Z,15.53
2022-10-03T04:50:35.631Z,15.52
2022-10-03T04:53:23.104Z,15.55
2022-10-03T04:55:58.668Z,15.54
2022-10-03T04:58:38.014Z,15.57
2022-10-03T05:01:16.454Z,15.61
2022-10-03T05:03:55.868Z,15.68
2022-10-03T05:06:37.140Z,15.73
2022-10-03T05:09:23.801Z,15.83
2022-10-03T05:12:07.171Z,15.79
2022-10-03T05:15:07.822Z,15.85
2022-10-03T05:17:48.248Z,15.79
2022-10-03T05:20:43.488Z,15.80
2022-10-03T05:23:25.786Z,15.83
2022-10-03T05:26:32.697Z,15.86
2022-10-03T05:29:07.030Z,15.82
2022-10-03T05:31:49.813Z,15.76
2022-10-03T05:34:36.145Z,15.87
2022-10-03T05:37:32.770Z,15.84
2022-10-03T05:40:06.067Z,15.81
2022-10-03T05:42:50.611Z,15.80
2022-10-03T05:45:31.201Z,15.82
2022-10-03T05:48:15.093Z,15.95
2022-10-03T05:51:18.998Z,15.99
2022-10-03T05:54:21.108Z,15.93
2022-10-03T05:57:00.313Z,16.07
2022-10-03T05:59:55.168Z,16.06
2022-10-03T06:02:54.925Z,16.06
2022-10-03T06:05:33.703Z,16.01
2022-10-03T06:08:32.004Z,15.98
2022-10-03T06:11:13.988Z,15.95
2022-10-03T06:14:18.941Z,15.97
2022-10-03T06:17:02.516Z,15.89
2022-10-03T06:19:49.334Z,15.97
2022-10-03T06:23:03.559Z,16.03
2022-10-03T06:26:15.177Z,15.95
2022-10-03T06:29:09.817Z,16.01
2022-10-03T06:32:19.589Z,16.02
2022-10-03T06:35:25.706Z,16.05
2022-10-03T06:38:25.560Z,16.08
2022-10-03T06:41:29.455Z,16.13
2022-10-03T06:44:17.525Z,16.14
2022-10-03T06:47:21.158Z,16.25
2022-10-03T06:50:26.978Z,16.39
2022-10-03T06:53:16.456Z,16.42
2022-10-03T06:56:10.477Z,16.35
2022-10-03T06:59:05.168Z,16.15
2022-10-03T07:02:18.263Z,16.03
2022-10-03T07:05:26.290Z,15.88
2022-10-03T07:08:35.229Z,15.83
2022-10-03T07:11:21.118Z,15.78
2022-10-03T07:14:24.738Z,15.71
2022-10-03T07:17:28.447Z,15.81
2022-10-03T07:20:38.747Z,15.73
2022-10-03T07:23:42.509Z,15.60
2022-10-03T07:26:47.530Z,15.66
2022-10-03T07:29:46.262Z,15.61
2022-10-03T07:32:42.230Z,15.51
2022-10-03T07:35:51.809Z,15.40
2022-10-03T07:39:01.600Z,15.29
2022-10-03T07:42:16.940Z,15.17
2022-10-03T07:45:13.898Z,15.14
2022-10-03T07:48:15.732Z,15.12
2022-10-03T07:51:10.249Z,15.10
2022-10-03T07:54:16.157Z,15.11
2022-10-03T07:57:13.874Z,15.02
2022-10-03T08:00:11.409Z,14.90
2022-10-03T08:03:28.963Z,14.86
2022-10-03T08:06:23.173Z,14.94
2022-10-03T08:09:24.736Z,15.05
2022-10-03T08:12:22.059Z,15.00
2022-10-03T08:15:04.589Z,15.06
2022-10-03T08:18:23.621Z,15.26
2022-10-03T08:20:55.514Z,15.40
2022-10-03T08:23:58.685Z,15.49
2022-10-03T08:26:46.998Z,15.45
2022-10-03T08:29:28.856Z,15.43
2022-10-03T08:32:28.203Z,15.44
2022-10-03T08:35:30.716Z,15.56
2022-10-03T08:38:33.185Z,15.59
2022-10-03T08:41:40.661Z,15.44
2022-10-03T08:45:04.512Z,15.37
2022-10-03T08:48:03.916Z,15.24
2022-10-03T08:50:58.617Z,15.23
2022-10-03T08:54:03.525Z,15.28
2022-10-03T08:56:53.910Z,15.25
2022-10-03T08:59:58.104Z,15.29
2022-10-03T09:03:31.821Z,15.28
2022-10-03T09:06:24.613Z,15.30
2022-10-03T09:09:14.069Z,15.12
2022-10-03T09:12:28.962Z,15.02
2022-10-03T09:15:30.458Z,14.98
2022-10-03T09:18:26.655Z,14.95
2022-10-03T09:21:37.366Z,15.02
2022-10-03T09:24:40.723Z,15.00
2022-10-03T09:27:31.531Z,14.97
2022-10-03T09:30:17.248Z,14.96
2022-10-03T09:33:23.755Z,15.11
2022-10-03T09:36:06.627Z,15.07
2022-10-03T09:38:59.712Z,15.00
2022-10-03T09:42:06.533Z,14.91
2022-10-03T09:44:55.903Z,14.76
2022-10-03T09:48:04.231Z,14.67
2022-10-03T09:51:16.035Z,14.65
2022-10-03T09:54:27.864Z,14.62
2022-10-03T09:57:18.516Z,14.49
2022-10-03T10:00:19.400Z,14.34
2022-10-03T10:03:24.350Z,14.10
2022-10-03T10:06:25.015Z,13.90
2022-10-03T10:09:24.110Z,13.94
2022-10-03T10:12:27.173Z,14.38
2022-10-03T10:15:28.772Z,15.00
2022-10-03T10:18:31.238Z,15.38
2022-10-03T10:21:40.951Z,15.59
2022-10-03T10:24:46.119Z,15.46
2022-10-03T10:27:50.219Z,15.45
2022-10-03T10:30:53.508Z,15.43
2022-10-03T10:33:59.964Z,15.37
2022-10-03T10:37:22.593Z,15.25
2022-10-03T10:40:19.760Z,14.79
2022-10-03T10:43:26.204Z,14.73
2022-10-03T10:46:41.190Z,14.66
2022-10-03T10:49:51.764Z,14.74
2022-10-03T10:52:55.892Z,14.92
2022-10-03T10:55:57.150Z,14.86
2022-10-03T10:59:13.699Z,15.10
2022-10-03T11:02:27.304Z,15.60
2022-10-03T11:05:34.962Z,15.96
2022-10-03T11:08:52.293Z,16.13
2022-10-03T11:12:01.229Z,15.83
2022-10-03T11:15:01.431Z,15.71
2022-10-03T11:18:17.049Z,15.77
2022-10-03T11:21:21.197Z,15.65
2022-10-03T11:24:25.287Z,15.38
2022-10-03T11:27:29.657Z,15.10
2022-10-03T11:30:20.288Z,14.99
2022-10-03T11:33:25.175Z,15.02
2022-10-03T11:36:43.656Z,15.29
2022-10-03T11:39:24.206Z,15.42
2022-10-03T11:42:04.535Z,15.11
2022-10-03T11:44:49.858Z,14.74
2022-10-03T11:47:55.903Z,14.87
2022-10-03T11:50:38.371Z,14.98
2022-10-03T11:53:28.585Z,15.11
2022-10-03T11:56:14.477Z,15.04
2022-10-03T11:59:01.769Z,15.37
2022-10-03T12:01:49.701Z,15.31
2022-10-03T12:04:30.125Z,15.14
2022-10-03T12:07:25.741Z,15.14
2022-10-03T12:10:11.609Z,15.08
2022-10-03T12:12:47.390Z,15.00
2022-10-03T12:15:29.708Z,14.88
2022-10-03T12:18:08.554Z,14.62
2022-10-03T12:21:01.057Z,14.40
2022-10-03T12:23:56.766Z,14.26
2022-10-03T12:26:32.996Z,14.21
2022-10-03T12:29:14.102Z,14.05
2022-10-03T12:31:51.722Z,13.81
2022-10-03T12:34:33.504Z,13.64
2022-10-03T12:37:16.034Z,13.60
2022-10-03T12:39:56.666Z,13.28
2022-10-03T12:42:37.048Z,13.36
2022-10-03T12:45:18.585Z,13.35
2022-10-03T12:48:12.342Z,13.35
2022-10-03T12:56:40.826Z,12.34
2022-10-03T12:59:19.825Z,12.66
2022-10-03T13:02:11.093Z,12.44
2022-10-03T13:04:47.312Z,12.45
2022-10-03T13:07:29.886Z,12.19
2022-10-03T13:10:21.173Z,12.33
2022-10-03T13:13:05.585Z,12.26
2022-10-03T13:16:01.551Z,12.28
2022-10-03T13:18:46.964Z,12.11
2022-10-03T13:21:44.453Z,12.06
2022-10-03T13:24:27.727Z,12.04
2022-10-03T13:27:17.884Z,12.06
2022-10-03T13:29:58.511Z,12.04
2022-10-03T13:32:36.531Z,12.02
2022-10-03T13:35:39.910Z,11.94
2022-10-03T13:38:32.298Z,11.80
2022-10-03T13:41:17.255Z,11.52
2022-10-03T13:43:51.729Z,11.49
2022-10-03T13:46:31.803Z,11.43
2022-10-03T13:49:10.609Z,11.31
2022-10-03T13:51:49.630Z,11.16
2022-10-03T13:54:26.583Z,11.02
2022-10-03T13:57:03.651Z,11.04
2022-10-03T13:59:54.513Z,11.04
2022-10-03T14:02:46.168Z,11.02
2022-10-03T14:05:53.838Z,11.04
2022-10-03T14:08:41.790Z,11.10
2022-10-03T14:11:36.412Z,11.09
2022-10-03T14:14:27.493Z,10.84
2022-10-03T14:17:04.217Z,10.60
2022-10-03T14:19:47.494Z,10.39
2022-10-03T14:22:33.598Z,10.19
2022-10-03T14:25:35.913Z,10.06
2022-10-03T14:28:15.353Z,9.80
2022-10-03T14:31:06.174Z,9.65
2022-10-03T14:33:43.222Z,9.53
2022-10-03T14:36:36.882Z,9.47
2022-10-03T14:39:26.502Z,9.33
2022-10-03T14:42:21.934Z,9.26
2022-10-03T14:44:59.090Z,9.02
2022-10-03T14:47:35.452Z,9.01
2022-10-03T14:50:05.906Z,8.91
2022-10-03T14:52:50.995Z,8.91
2022-10-03T14:55:25.325Z,8.87
2022-10-03T14:58:11.895Z,8.76
2022-10-03T15:00:45.469Z,8.72
2022-10-03T15:03:37.544Z,8.71
2022-10-03T15:06:21.324Z,8.73
2022-10-03T15:08:56.710Z,8.62
2022-10-03T15:11:30.108Z,8.61
2022-10-03T15:14:03.390Z,8.67
2022-10-03T15:16:36.839Z,8.74
2022-10-03T15:19:17.023Z,8.86
2022-10-03T15:21:47.695Z,8.90
2022-10-03T15:24:25.625Z,8.85
2022-10-03T15:27:00.932Z,8.84
2022-10-03T15:29:32.480Z,8.84
2022-10-03T15:32:02.401Z,8.98
2022-10-03T15:34:34.819Z,9.10
2022-10-03T15:37:17.826Z,9.27
2022-10-03T15:39:54.553Z,9.32
2022-10-03T15:42:25.189Z,9.16
2022-10-03T15:45:02.569Z,9.35
2022-10-03T15:47:39.657Z,9.43
2022-10-03T15:50:18.995Z,9.48
2022-10-03T15:52:52.001Z,9.56
2022-10-03T15:58:18.355Z,9.54
2022-10-03T16:00:57.539Z,9.57
2022-10-03T16:03:32.404Z,9.48
2022-10-03T16:06:10.485Z,9.57
2022-10-03T16:08:54.570Z,9.56
2022-10-03T16:11:29.974Z,9.56
2022-10-03T16:14:17.521Z,9.58
2022-10-03T16:16:53.620Z,9.55
2022-10-03T16:19:38.895Z,9.53
2022-10-03T16:22:24.229Z,9.41
2022-10-03T16:25:05.707Z,9.54
2022-10-03T16:27:41.477Z,9.45
2022-10-03T16:30:22.340Z,9.52
2022-10-03T16:33:02.179Z,9.54
2022-10-03T16:35:40.828Z,9.50
2022-10-03T16:38:21.680Z,9.51
2022-10-03T16:41:16.818Z,9.57
2022-10-03T16:43:59.240Z,9.55
2022-10-03T16:46:32.891Z,9.56
2022-10-03T16:49:24.488Z,9.55
2022-10-03T16:52:01.920Z,9.64
2022-10-03T16:54:38.023Z,9.61
2022-10-03T16:57:14.267Z,9.64
2022-10-03T16:59:52.234Z,9.65
2022-10-03T17:02:25.186Z,9.68
2022-10-03T17:05:07.928Z,9.71
2022-10-03T17:07:44.726Z,9.69
2022-10-03T17:10:31.792Z,9.73
2022-10-03T17:13:10.301Z,9.71
2022-10-03T17:15:50.253Z,9.69
2022-10-03T17:18:28.040Z,9.65
2022-10-03T17:21:05.331Z,9.64
2022-10-03T17:23:40.520Z,9.67
2022-10-03T17:26:20.845Z,9.68
2022-10-03T17:28:57.541Z,9.79
2022-10-03T17:31:35.449Z,9.83
2022-10-03T17:34:13.522Z,9.83
2022-10-03T17:36:58.650Z,9.67
2022-10-03T17:39:51.202Z,9.84
2022-10-03T17:42:38.638Z,9.80
2022-10-03T17:45:19.877Z,9.71
2022-10-03T17:47:58.467Z,9.83
2022-10-03T17:50:39.038Z,9.84
2022-10-03T17:53:19.999Z,9.79
2022-10-03T17:55:52.981Z,9.79
2022-10-03T17:58:30.536Z,9.79
2022-10-03T18:01:07.966Z,9.76
2022-10-03T18:03:51.565Z,9.66
2022-10-03T18:06:39.476Z,9.84
2022-10-03T18:09:20.659Z,9.85
2022-10-03T18:11:52.408Z,9.91
2022-10-03T18:14:34.268Z,9.92
2022-10-03T18:17:12.369Z,9.84
2022-10-03T18:20:01.857Z,9.96
2022-10-03T18:22:40.910Z,9.97
2022-10-03T18:25:36.480Z,10.00
2022-10-03T18:28:18.030Z,9.78
2022-10-03T18:30:52.629Z,10.03
2022-10-03T18:33:27.278Z,10.00
2022-10-03T18:35:59.245Z,9.96
2022-10-03T18:38:30.820Z,10.00
2022-10-03T18:41:09.810Z,10.03
2022-10-03T18:43:44.899Z,10.09
2022-10-03T18:46:21.590Z,10.17
2022-10-03T18:49:28.324Z,10.21
2022-10-03T18:51:55.364Z,10.21
2022-10-03T18:54:37.952Z,10.35
2022-10-03T18:57:13.083Z,10.38
2022-10-03T18:59:52.658Z,10.40
2022-10-03T19:02:30.993Z,10.41
2022-10-03T19:05:06.500Z,10.43
2022-10-03T19:07:50.333Z,10.32
2022-10-03T19:10:40.616Z,10.52
2022-10-03T19:13:31.049Z,10.56
2022-10-03T19:16:18.577Z,10.58
2022-10-03T19:19:04.125Z,10.56
2022-10-03T19:21:38.232Z,10.47
2022-10-03T19:24:18.656Z,10.47
2022-10-03T19:26:51.896Z,10.46
2022-10-03T19:29:25.788Z,10.48
2022-10-03T19:32:02.707Z,10.54
2022-10-03T19:34:39.625Z,10.56
2022-10-03T19:37:16.567Z,10.53
2022-10-03T19:39:48.275Z,10.52
2022-10-03T19:42:31.544Z,10.49
2022-10-03T19:45:02.663Z,10.44
2022-10-03T19:47:37.651Z,10.37
2022-10-03T19:50:21.312Z,10.28
2022-10-03T19:52:51.484Z,10.34
2022-10-03T19:55:26.440Z,10.40
2022-10-03T19:57:58.386Z,10.48
2022-10-03T20:00:31.323Z,10.49
2022-10-03T20:03:17.885Z,10.57
2022-10-03T20:06:10.891Z,10.61
2022-10-03T20:08:45.947Z,10.59
2022-10-03T20:11:39.750Z,10.68
2022-10-03T20:14:13.113Z,10.69
2022-10-03T20:16:46.652Z,10.67
2022-10-03T20:19:18.439Z,10.72
2022-10-03T20:21:55.998Z,10.78
2022-10-03T20:24:35.040Z,10.80
2022-10-03T20:27:19.621Z,10.83
2022-10-03T20:29:57.724Z,10.85
2022-10-03T20:32:39.310Z,10.88
2022-10-03T20:35:19.168Z,10.83
2022-10-03T20:37:53.557Z,10.90
2022-10-03T20:40:38.013Z,10.81
2022-10-03T20:43:32.091Z,10.63
2022-10-03T20:46:18.368Z,10.43
2022-10-03T20:49:03.536Z,10.30
2022-10-03T20:51:49.545Z,10.19
2022-10-03T20:54:21.049Z,10.15
2022-10-03T20:56:57.665Z,10.23
2022-10-03T20:59:42.038Z,10.32
2022-10-03T21:02:23.825Z,10.41
2022-10-03T21:04:59.677Z,10.51
2022-10-03T21:07:36.820Z,10.50
2022-10-03T21:10:24.243Z,10.54
2022-10-03T21:12:55.393Z,10.56
2022-10-03T21:15:43.125Z,10.59
2022-10-03T21:18:22.913Z,10.61
2022-10-03T21:21:03.941Z,10.62
2022-10-03T21:23:38.101Z,10.61
2022-10-03T21:26:14.910Z,10.65
2022-10-03T21:28:44.220Z,10.68
2022-10-03T21:31:36.246Z,10.79
2022-10-03T21:34:22.889Z,10.80
2022-10-03T21:37:08.221Z,10.79
2022-10-03T21:39:50.707Z,10.83
2022-10-03T21:42:30.844Z,10.82
2022-10-03T21:45:11.396Z,10.82
2022-10-03T21:47:49.834Z,10.80
2022-10-03T21:50:24.046Z,10.71
2022-10-03T21:53:20.018Z,10.76
2022-10-03T21:56:08.771Z,10.71
2022-10-03T21:59:09.835Z,10.57
2022-10-03T22:01:50.194Z,10.38
2022-10-03T22:07:04.408Z,10.46
2022-10-03T22:09:34.806Z,10.48
2022-10-03T22:12:08.879Z,10.47
2022-10-03T22:14:46.664Z,10.52
2022-10-03T22:20:12.898Z,10.64
2022-10-03T22:23:03.970Z,10.61
2022-10-03T22:25:48.622Z,10.44
2022-10-03T22:28:37.732Z,10.28
2022-10-03T22:31:19.095Z,10.10
2022-10-03T22:33:59.328Z,10.27
2022-10-03T22:36:36.057Z,10.41
2022-10-03T22:39:11.195Z,10.51
2022-10-03T22:41:42.555Z,10.59
2022-10-03T22:44:14.818Z,10.61
2022-10-03T22:46:54.758Z,10.62
2022-10-03T22:49:30.038Z,10.63
2022-10-03T22:52:04.863Z,10.66
2022-10-03T22:54:44.577Z,10.69
2022-10-03T22:57:14.832Z,10.65
2022-10-03T22:59:49.530Z,10.66
2022-10-03T23:02:21.560Z,10.72
2022-10-03T23:04:55.825Z,10.53
2022-10-03T23:07:46.408Z,10.77
2022-10-03T23:10:43.634Z,10.74
2022-10-03T23:13:20.109Z,10.64
2022-10-03T23:16:03.629Z,10.63
2022-10-03T23:18:53.241Z,10.61
2022-10-03T23:21:32.592Z,10.53
2022-10-03T23:24:11.873Z,10.59
2022-10-03T23:27:18.744Z,10.62
2022-10-03T23:30:08.173Z,10.53
2022-10-03T23:35:42.349Z,10.51
2022-10-03T23:38:44.034Z,10.50
2022-10-03T23:41:29.030Z,10.47
2022-10-03T23:43:59.712Z,10.45
2022-10-03T23:46:32.649Z,10.38
2022-10-03T23:49:08.156Z,10.34
2022-10-03T23:51:38.897Z,10.36
2022-10-03T23:54:13.626Z,10.32
2022-10-03T23:56:48.702Z,10.39
2022-10-03T23:59:27.114Z,10.36
